Ningbo Seal — VRJD3 — position and weather

sailwx.info

Track history (hours):
 
Tides and Currents Weather Stations Pressure Air Temp Water Temp Dewpoint Dewpoint Depression Visibility Wind Speed Wind Dir Waves Ship Positions

Ningbo Seal

Last reported at 2014-Jun-13 22:12 UTC. Time now 2014-Jul-26 19:20 UTC.
Position S 34°22' E 017°46'.
Warning: this ship's position is 42 days out of date.

Length 224 m; draft 8.7 m.

Type: Cargo ship. MMSI: 477628100.

Date/timePositionNaut miles runAvg speedWind from/ knotsBaromVisibWave heightAir tempDewpointWater temp
2014-Jun-13 22:12S 34°22' E 017°46'812.3
2014-Jun-13 21:33S 34°27' E 017°54'1612.3
2014-Jun-13 20:17S 34°35' E 018°10'911.8
2014-Jun-13 19:33S 34°40' E 018°18'1211.7
2014-Jun-13 18:31S 34°44' E 018°32'1111.8
2014-Jun-13 17:33S 34°46' E 018°46'1211.8
2014-Jun-13 16:33S 34°49' E 018°60'1312.3
2014-Jun-13 15:32S 34°53' E 019°14'2612.5
2014-Jun-13 13:28S 34°58' E 019°45'1212.5
2014-Jun-13 12:30S 34°58' E 019°60'5212.3
2014-Jun-13 08:16S 34°55' E 021°03'31412.4
2014-Jun-12 07:04S 33°49' E 027°15'2415.3
2014-Jun-12 05:28S 33°33' E 027°36'1515.6
2014-Jun-12 04:31S 33°23' E 027°50'24113.4
2014-Jun-11 10:32S 30°21' E 030°56'1313.6
2014-Jun-11 09:33S 30°09' E 031°05'1110.7
2014-Jun-11 08:33S 29°60' E 031°10'7 6.9
2014-Jun-11 07:33S 29°53' E 031°10'1 1.2
2014-Jun-11 06:26S 29°51' E 031°10'0 0.1
2014-Jun-11 05:28S 29°51' E 031°10'0 0.0
2014-Jun-11 04:28S 29°51' E 031°10'0 0.0
2014-Jun-11 03:28S 29°51' E 031°10'0 0.0
2014-Jun-11 02:22S 29°51' E 031°10'0 0.0
2014-Jun-11 01:28S 29°51' E 031°10'0 0.0
2014-Jun-11 00:28S 29°51' E 031°10'0 0.0
2014-Jun-10 23:28S 29°51' E 031°10'0 0.0
2014-Jun-10 22:16S 29°51' E 031°10'0 0.0
2014-Jun-10 21:28S 29°51' E 031°10'0 0.0
2014-Jun-10 20:28S 29°51' E 031°10'0 0.0
2014-Jun-10 19:29S 29°51' E 031°10'0 0.0
2014-Jun-10 18:28S 29°51' E 031°10'0 0.1
2014-Jun-10 17:28S 29°51' E 031°10'0 0.0
2014-Jun-10 16:28S 29°51' E 031°10'0 0.0
2014-Jun-10 15:28S 29°51' E 031°10'0 0.0
2014-Jun-10 14:28S 29°51' E 031°10'0 0.0
2014-Jun-10 13:22S 29°51' E 031°10'0 0.1
2014-Jun-10 12:28S 29°51' E 031°10'0 0.0
2014-Jun-10 11:28S 29°51' E 031°10'0 0.1
2014-Jun-10 10:17S 29°51' E 031°10'0 0.1
2014-Jun-10 09:22S 29°51' E 031°10'0 0.0
2014-Jun-10 08:28S 29°51' E 031°10'0 0.0
2014-Jun-10 07:28S 29°51' E 031°10'0 0.0
2014-Jun-10 06:28S 29°51' E 031°10'12 4.1
2014-Jun-10 03:33S 29°47' E 031°23'10 9.9
2014-Jun-10 02:33S 29°44' E 031°34'1211.9
2014-Jun-10 01:33S 29°41' E 031°47'1312.9
2014-Jun-10 00:33S 29°38' E 032°01'9 9.4
2014-Jun-09 23:33S 29°35' E 032°12'8 8.3
2014-Jun-09 22:33S 29°33' E 032°21'7 7.4
2014-Jun-09 21:33S 29°31' E 032°29'  
Track history (hours):
 
Tides and Currents Weather Stations Pressure Air Temp Water Temp Dewpoint Dewpoint Depression Visibility Wind Speed Wind Dir Waves Ship Positions

Ningbo Seal

Last reported at 2014-Jun-13 22:12 UTC. Time now 2014-Jul-26 19:20 UTC.
Position S 34°22' E 017°46'.
Warning: this ship's position is 42 days out of date.

Length 224 m; draft 8.7 m.

Type: Cargo ship. MMSI: 477628100.

Date/timePositionNaut miles runAvg speedWind from/ knotsBaromVisibWave heightAir tempDewpointWater temp
2014-Jun-13 22:12S 34°22' E 017°46'812.3
2014-Jun-13 21:33S 34°27' E 017°54'1612.3
2014-Jun-13 20:17S 34°35' E 018°10'911.8
2014-Jun-13 19:33S 34°40' E 018°18'1211.7
2014-Jun-13 18:31S 34°44' E 018°32'1111.8
2014-Jun-13 17:33S 34°46' E 018°46'1211.8
2014-Jun-13 16:33S 34°49' E 018°60'1312.3
2014-Jun-13 15:32S 34°53' E 019°14'2612.5
2014-Jun-13 13:28S 34°58' E 019°45'1212.5
2014-Jun-13 12:30S 34°58' E 019°60'5212.3
2014-Jun-13 08:16S 34°55' E 021°03'31412.4
2014-Jun-12 07:04S 33°49' E 027°15'2415.3
2014-Jun-12 05:28S 33°33' E 027°36'1515.6
2014-Jun-12 04:31S 33°23' E 027°50'24113.4
2014-Jun-11 10:32S 30°21' E 030°56'1313.6
2014-Jun-11 09:33S 30°09' E 031°05'1110.7
2014-Jun-11 08:33S 29°60' E 031°10'7 6.9
2014-Jun-11 07:33S 29°53' E 031°10'1 1.2
2014-Jun-11 06:26S 29°51' E 031°10'0 0.1
2014-Jun-11 05:28S 29°51' E 031°10'0 0.0
2014-Jun-11 04:28S 29°51' E 031°10'0 0.0
2014-Jun-11 03:28S 29°51' E 031°10'0 0.0
2014-Jun-11 02:22S 29°51' E 031°10'0 0.0
2014-Jun-11 01:28S 29°51' E 031°10'0 0.0
2014-Jun-11 00:28S 29°51' E 031°10'0 0.0
2014-Jun-10 23:28S 29°51' E 031°10'0 0.0
2014-Jun-10 22:16S 29°51' E 031°10'0 0.0
2014-Jun-10 21:28S 29°51' E 031°10'0 0.0
2014-Jun-10 20:28S 29°51' E 031°10'0 0.0
2014-Jun-10 19:29S 29°51' E 031°10'0 0.0
2014-Jun-10 18:28S 29°51' E 031°10'0 0.1
2014-Jun-10 17:28S 29°51' E 031°10'0 0.0
2014-Jun-10 16:28S 29°51' E 031°10'0 0.0
2014-Jun-10 15:28S 29°51' E 031°10'0 0.0
2014-Jun-10 14:28S 29°51' E 031°10'0 0.0
2014-Jun-10 13:22S 29°51' E 031°10'0 0.1
2014-Jun-10 12:28S 29°51' E 031°10'0 0.0
2014-Jun-10 11:28S 29°51' E 031°10'0 0.1
2014-Jun-10 10:17S 29°51' E 031°10'0 0.1
2014-Jun-10 09:22S 29°51' E 031°10'0 0.0
2014-Jun-10 08:28S 29°51' E 031°10'0 0.0
2014-Jun-10 07:28S 29°51' E 031°10'0 0.0
2014-Jun-10 06:28S 29°51' E 031°10'12 4.1
2014-Jun-10 03:33S 29°47' E 031°23'10 9.9
2014-Jun-10 02:33S 29°44' E 031°34'1211.9
2014-Jun-10 01:33S 29°41' E 031°47'1312.9
2014-Jun-10 00:33S 29°38' E 032°01'9 9.4
2014-Jun-09 23:33S 29°35' E 032°12'8 8.3
2014-Jun-09 22:33S 29°33' E 032°21'7 7.4
2014-Jun-09 21:33S 29°31' E 032°29'  

Dump ship's entire track history